createdAt,value
2022-10-14T00:01:24.290Z,59.78
2022-10-14T00:03:51.768Z,57.35
2022-10-14T00:06:23.323Z,57.63
2022-10-14T00:08:50.526Z,59.30
2022-10-14T00:11:20.638Z,59.33
2022-10-14T00:13:48.014Z,58.40
2022-10-14T00:16:27.384Z,59.47
2022-10-14T00:18:54.434Z,60.85
2022-10-14T00:21:22.256Z,60.63
2022-10-14T00:23:49.372Z,60.00
2022-10-14T00:26:19.496Z,59.50
2022-10-14T00:28:49.168Z,59.03
2022-10-14T00:31:17.245Z,59.35
2022-10-14T00:33:48.643Z,59.55
2022-10-14T00:36:17.507Z,59.58
2022-10-14T00:38:47.784Z,56.20
2022-10-14T00:41:26.657Z,60.25
2022-10-14T00:44:04.243Z,65.30
2022-10-14T00:46:37.904Z,59.20
2022-10-14T00:49:18.795Z,60.92
2022-10-14T00:52:02.766Z,60.65
2022-10-14T00:54:44.956Z,56.97
2022-10-14T00:57:12.685Z,56.90
2022-10-14T00:59:39.915Z,63.53
2022-10-14T01:02:07.184Z,60.60
2022-10-14T01:04:37.238Z,62.30
2022-10-14T01:07:37.269Z,58.88
2022-10-14T01:10:09.683Z,63.95
2022-10-14T01:12:58.482Z,57.15
2022-10-14T01:15:41.257Z,59.97
2022-10-14T01:18:27.800Z,61.78
2022-10-14T01:21:21.507Z,63.40
2022-10-14T01:23:48.798Z,59.75
2022-10-14T01:26:18.595Z,59.55
2022-10-14T01:29:17.571Z,59.90
2022-10-14T01:31:57.844Z,63.47
2022-10-14T01:34:33.443Z,65.00
2022-10-14T01:37:09.263Z,60.58
2022-10-14T01:39:47.407Z,62.78
2022-10-14T01:42:24.139Z,62.17
2022-10-14T01:44:57.468Z,64.85
2022-10-14T01:47:43.898Z,60.10
2022-10-14T01:50:18.380Z,63.70
2022-10-14T01:53:01.752Z,60.72
2022-10-14T01:55:35.226Z,62.78
2022-10-14T01:58:03.962Z,61.30
2022-10-14T02:00:31.588Z,62.92
2022-10-14T02:03:02.387Z,63.63
2022-10-14T02:05:52.699Z,62.97
2022-10-14T02:08:40.419Z,63.90
2022-10-14T02:11:15.687Z,61.80
2022-10-14T02:13:51.744Z,62.30
2022-10-14T02:16:30.615Z,73.18
2022-10-14T02:19:08.864Z,63.38
2022-10-14T02:22:28.370Z,66.70
2022-10-14T02:25:00.503Z,62.83
2022-10-14T02:27:29.463Z,66.43
2022-10-14T02:29:59.967Z,66.55
2022-10-14T02:32:28.412Z,60.45
2022-10-14T02:34:58.858Z,59.50
2022-10-14T02:37:28.987Z,62.10
2022-10-14T02:40:39.497Z,64.78
2022-10-14T02:43:10.132Z,61.25
2022-10-14T02:45:38.674Z,48.20
2022-10-14T02:48:06.635Z,44.25
2022-10-14T02:50:33.952Z,61.47
2022-10-14T02:53:02.375Z,58.88
2022-10-14T02:55:29.759Z,62.75
2022-10-14T02:57:56.831Z,66.93
2022-10-14T03:00:26.670Z,59.58
2022-10-14T03:02:55.348Z,64.25
2022-10-14T03:05:24.041Z,61.30
2022-10-14T03:07:51.174Z,61.15
2022-10-14T03:10:21.673Z,62.67
2022-10-14T03:12:49.092Z,59.67
2022-10-14T03:15:25.454Z,68.25
2022-10-14T03:17:53.228Z,58.20
2022-10-14T03:20:25.288Z,66.35
2022-10-14T03:22:56.517Z,64.72
2022-10-14T03:25:24.201Z,60.60
2022-10-14T03:28:05.317Z,61.40
2022-10-14T03:30:49.306Z,47.78
2022-10-14T03:33:29.840Z,36.85
2022-10-14T03:36:13.090Z,36.15
2022-10-14T03:38:45.342Z,62.55
2022-10-14T03:41:22.617Z,63.72
2022-10-14T03:43:49.792Z,60.83
2022-10-14T03:46:17.588Z,60.72
2022-10-14T03:48:44.688Z,64.20
2022-10-14T03:51:13.082Z,60.05
2022-10-14T03:53:42.452Z,63.28
2022-10-14T03:56:14.078Z,62.70
2022-10-14T03:58:41.911Z,62.22
2022-10-14T04:01:13.668Z,61.03
2022-10-14T04:04:05.911Z,41.35
2022-10-14T04:06:34.744Z,46.63
2022-10-14T04:09:05.033Z,38.15
2022-10-14T04:11:36.834Z,36.33
2022-10-14T04:14:10.588Z,58.67
2022-10-14T04:16:49.613Z,61.78
2022-10-14T04:19:17.432Z,63.13
2022-10-14T04:21:44.811Z,61.95
2022-10-14T04:24:12.751Z,62.75
2022-10-14T04:26:50.690Z,68.43
2022-10-14T04:29:25.650Z,63.25
2022-10-14T04:31:59.607Z,64.95
2022-10-14T04:34:26.972Z,40.40
2022-10-14T04:36:54.538Z,40.85
2022-10-14T04:39:31.945Z,67.40
2022-10-14T04:41:59.000Z,59.60
2022-10-14T04:44:26.296Z,64.07
2022-10-14T04:46:55.275Z,64.88
2022-10-14T04:49:25.022Z,39.85
2022-10-14T04:52:02.220Z,38.10
2022-10-14T04:54:41.303Z,66.43
2022-10-14T04:57:09.993Z,65.78
2022-10-14T04:59:38.641Z,59.45
2022-10-14T05:02:15.350Z,60.95
2022-10-14T05:04:50.060Z,44.42
2022-10-14T05:07:17.666Z,41.17
2022-10-14T05:09:49.750Z,42.03
2022-10-14T05:12:24.719Z,62.72
2022-10-14T05:14:57.177Z,63.67
2022-10-14T05:17:32.224Z,64.45
2022-10-14T05:19:59.319Z,62.47
2022-10-14T05:22:28.064Z,60.92
2022-10-14T05:24:55.887Z,60.53
2022-10-14T05:27:23.775Z,60.42
2022-10-14T05:29:51.396Z,58.88
2022-10-14T05:32:18.725Z,65.93
2022-10-14T05:34:47.026Z,64.68
2022-10-14T05:37:23.191Z,40.10
2022-10-14T05:39:52.786Z,63.78
2022-10-14T05:42:23.697Z,61.67
2022-10-14T05:44:54.098Z,42.40
2022-10-14T05:47:21.445Z,29.35
2022-10-14T05:49:52.364Z,32.85
2022-10-14T05:52:19.752Z,63.78
2022-10-14T05:54:48.227Z,58.45
2022-10-14T05:57:19.332Z,40.67
2022-10-14T05:59:47.100Z,60.63
2022-10-14T06:02:15.377Z,35.15
2022-10-14T06:04:42.589Z,31.05
2022-10-14T06:07:10.475Z,62.20
2022-10-14T06:09:39.118Z,69.90
2022-10-14T06:12:07.028Z,64.50
2022-10-14T06:14:35.577Z,43.78
2022-10-14T06:17:02.990Z,33.65
2022-10-14T06:19:33.338Z,65.13
2022-10-14T06:22:00.476Z,73.30
2022-10-14T06:24:27.638Z,108.22
2022-10-14T06:26:54.677Z,72.35
2022-10-14T06:29:26.218Z,74.13
2022-10-14T06:31:53.267Z,70.45
2022-10-14T06:34:23.056Z,76.97
2022-10-14T06:36:50.236Z,71.40
2022-10-14T06:39:17.519Z,68.95
2022-10-14T06:41:44.757Z,75.63
2022-10-14T06:44:19.912Z,69.53
2022-10-14T06:46:47.143Z,69.68
2022-10-14T06:49:14.595Z,68.13
2022-10-14T06:51:41.798Z,69.07
2022-10-14T06:54:09.203Z,42.47
2022-10-14T06:56:38.195Z,38.53
2022-10-14T06:59:05.920Z,74.07
2022-10-14T07:01:33.215Z,42.42
2022-10-14T07:04:03.386Z,37.60
2022-10-14T07:06:30.784Z,61.33
2022-10-14T07:08:57.988Z,68.65
2022-10-14T07:11:25.226Z,75.60
2022-10-14T07:13:52.472Z,75.03
2022-10-14T07:16:19.500Z,71.57
2022-10-14T07:18:46.555Z,51.95
2022-10-14T07:21:13.736Z,79.35
2022-10-14T07:23:41.227Z,47.17
2022-10-14T07:26:08.508Z,35.33
2022-10-14T07:28:35.736Z,73.32
2022-10-14T07:31:07.451Z,76.82
2022-10-14T07:36:15.102Z,77.95
2022-10-14T07:38:45.111Z,73.32
2022-10-14T07:41:19.237Z,72.68
2022-10-14T07:43:48.607Z,74.40
2022-10-14T07:46:28.207Z,69.55
2022-10-14T07:48:57.775Z,76.50
2022-10-14T07:51:26.418Z,72.55
2022-10-14T07:53:55.708Z,78.78
2022-10-14T07:56:24.098Z,86.25
2022-10-14T07:58:51.243Z,79.35
2022-10-14T08:01:18.964Z,80.82
2022-10-14T08:03:47.757Z,76.75
2022-10-14T08:06:15.313Z,76.65
2022-10-14T08:08:43.972Z,79.03
2022-10-14T08:11:15.228Z,78.68
2022-10-14T08:13:46.071Z,73.93
2022-10-14T08:16:16.640Z,84.53
2022-10-14T08:18:44.931Z,76.47
2022-10-14T08:21:12.882Z,75.25
2022-10-14T08:23:39.931Z,72.60
2022-10-14T08:26:28.854Z,82.03
2022-10-14T08:28:56.160Z,76.90
2022-10-14T08:31:23.463Z,77.45
2022-10-14T08:33:50.823Z,79.85
2022-10-14T08:36:19.382Z,77.75
2022-10-14T08:38:47.004Z,80.60
2022-10-14T08:41:17.024Z,77.13
2022-10-14T08:43:52.171Z,80.72
2022-10-14T08:46:32.918Z,84.60
2022-10-14T08:49:08.552Z,81.03
2022-10-14T08:51:36.145Z,82.53
2022-10-14T08:54:11.071Z,81.20
2022-10-14T08:56:38.948Z,86.93
2022-10-14T08:59:12.851Z,84.53
2022-10-14T09:01:57.349Z,80.82
2022-10-14T09:04:24.533Z,85.22
2022-10-14T09:06:53.627Z,111.80
2022-10-14T09:09:44.795Z,98.32
2022-10-14T09:12:20.780Z,104.00
2022-10-14T09:15:08.958Z,100.15
2022-10-14T09:17:48.315Z,102.32
2022-10-14T09:20:20.312Z,116.75
2022-10-14T09:23:04.679Z,107.07
2022-10-14T09:25:35.333Z,107.90
2022-10-14T09:28:02.796Z,99.70
2022-10-14T09:30:36.875Z,103.68
2022-10-14T09:33:05.145Z,98.78
2022-10-14T09:35:42.281Z,145.13
2022-10-14T09:38:13.757Z,98.07
2022-10-14T09:40:45.794Z,89.55
2022-10-14T09:43:20.275Z,95.43
2022-10-14T09:46:08.100Z,89.88
2022-10-14T09:48:44.581Z,89.35
2022-10-14T09:51:25.711Z,84.53
2022-10-14T09:53:55.284Z,101.55
2022-10-14T09:56:38.918Z,104.15
2022-10-14T09:59:21.148Z,87.70
2022-10-14T10:02:00.333Z,91.00
2022-10-14T10:04:33.645Z,84.82
2022-10-14T10:07:05.714Z,78.30
2022-10-14T10:09:33.490Z,72.43
2022-10-14T10:12:00.708Z,68.88
2022-10-14T10:14:33.099Z,73.25
2022-10-14T10:17:12.820Z,81.72
2022-10-14T10:19:51.447Z,80.72
2022-10-14T10:22:27.296Z,83.20
2022-10-14T10:25:06.580Z,76.10
2022-10-14T10:27:41.311Z,72.88
2022-10-14T10:30:30.357Z,71.03
2022-10-14T10:33:29.501Z,64.97
2022-10-14T10:39:01.223Z,62.40
2022-10-14T10:41:49.844Z,57.03
2022-10-14T10:44:40.299Z,57.53
2022-10-14T10:47:24.799Z,59.75
2022-10-14T10:50:21.409Z,64.65
2022-10-14T10:53:01.283Z,57.63
2022-10-14T10:58:41.320Z,57.45
2022-10-14T11:01:43.554Z,62.20
2022-10-14T11:04:28.534Z,57.22
2022-10-14T11:07:33.115Z,64.72
2022-10-14T11:10:37.849Z,58.53
2022-10-14T11:13:29.302Z,58.20
2022-10-14T11:16:10.444Z,58.75
2022-10-14T11:19:13.847Z,58.13
2022-10-14T11:21:57.001Z,64.78
2022-10-14T11:24:42.279Z,61.72
2022-10-14T11:27:14.884Z,68.75
2022-10-14T11:29:49.056Z,67.95
2022-10-14T11:32:51.417Z,66.40
2022-10-14T11:35:38.096Z,63.85
2022-10-14T11:38:08.411Z,64.32
2022-10-14T11:40:42.891Z,68.45
2022-10-14T11:43:39.413Z,67.25
2022-10-14T11:46:13.625Z,64.45
2022-10-14T11:48:51.274Z,60.25
2022-10-14T11:51:35.964Z,61.30
2022-10-14T11:54:18.869Z,56.55
2022-10-14T11:56:56.747Z,62.58
2022-10-14T11:59:46.114Z,61.67
2022-10-14T12:02:49.044Z,58.70
2022-10-14T12:05:36.325Z,64.65
2022-10-14T12:08:41.204Z,58.42
2022-10-14T12:11:29.894Z,66.65
2022-10-14T12:14:20.060Z,58.50
2022-10-14T12:16:49.195Z,65.32
2022-10-14T12:19:26.593Z,62.28
2022-10-14T12:22:21.915Z,61.33
2022-10-14T12:24:55.184Z,73.05
2022-10-14T12:27:25.638Z,65.45
2022-10-14T12:29:55.697Z,63.88
2022-10-14T12:32:25.995Z,67.03
2022-10-14T12:34:57.652Z,59.80
2022-10-14T12:37:28.796Z,63.13
2022-10-14T12:40:07.487Z,55.47
2022-10-14T12:42:44.300Z,59.33
2022-10-14T12:47:46.583Z,63.25
2022-10-14T12:50:29.606Z,73.50
2022-10-14T12:53:01.507Z,72.47
2022-10-14T12:55:33.306Z,63.63
2022-10-14T12:58:06.086Z,57.78
2022-10-14T13:00:40.615Z,59.45
2022-10-14T13:03:20.440Z,64.77
2022-10-14T13:05:48.140Z,59.45
2022-10-14T13:08:23.656Z,67.60
2022-10-14T13:11:02.320Z,65.25
2022-10-14T13:13:47.973Z,75.03
2022-10-14T13:16:24.079Z,72.40
2022-10-14T13:18:53.028Z,68.00
2022-10-14T13:21:26.188Z,73.00
2022-10-14T13:23:55.174Z,69.80
2022-10-14T13:26:42.509Z,74.18
2022-10-14T13:29:23.164Z,71.68
2022-10-14T13:32:17.405Z,77.60
2022-10-14T13:34:54.244Z,74.70
2022-10-14T13:37:44.793Z,73.90
2022-10-14T13:40:42.671Z,76.75
2022-10-14T13:43:29.433Z,79.28
2022-10-14T13:46:06.968Z,72.40
2022-10-14T13:48:42.978Z,78.75
2022-10-14T13:51:24.478Z,74.05
2022-10-14T13:54:20.367Z,78.47
2022-10-14T13:57:35.033Z,77.07
2022-10-14T14:00:22.534Z,76.40
2022-10-14T14:02:41.695Z,71.85
2022-10-14T14:05:15.952Z,71.78
2022-10-14T14:08:22.090Z,73.27
2022-10-14T14:10:32.081Z,71.38
2022-10-14T14:13:04.721Z,77.47
2022-10-14T14:15:32.383Z,71.18
2022-10-14T14:17:59.912Z,75.88
2022-10-14T14:20:29.230Z,71.78
2022-10-14T14:22:58.561Z,71.35
2022-10-14T14:25:43.010Z,72.13
2022-10-14T14:28:15.468Z,67.03
2022-10-14T14:30:54.308Z,70.65
2022-10-14T14:33:32.476Z,71.38
2022-10-14T14:36:04.639Z,65.43
2022-10-14T14:38:34.313Z,70.10
2022-10-14T14:41:07.170Z,74.15
2022-10-14T14:43:38.461Z,73.90
2022-10-14T14:46:17.353Z,79.63
2022-10-14T14:48:45.515Z,71.45
2022-10-14T14:51:14.295Z,74.10
2022-10-14T14:53:42.369Z,70.82
2022-10-14T14:56:18.948Z,70.50
2022-10-14T14:58:52.978Z,68.95
2022-10-14T15:01:29.601Z,64.93
2022-10-14T15:04:13.843Z,71.45
2022-10-14T15:07:01.786Z,71.00
2022-10-14T15:09:52.349Z,71.88
2022-10-14T15:12:23.167Z,69.20
2022-10-14T15:14:53.804Z,74.00
2022-10-14T15:17:41.847Z,79.20
2022-10-14T15:20:14.556Z,68.95
2022-10-14T15:22:43.641Z,67.93
2022-10-14T15:25:12.070Z,63.15
2022-10-14T15:27:46.701Z,67.00
2022-10-14T15:30:34.484Z,75.70
2022-10-14T15:33:18.097Z,71.75
2022-10-14T15:35:53.512Z,65.78
2022-10-14T15:38:20.753Z,72.90
2022-10-14T15:40:49.455Z,69.25
2022-10-14T15:43:26.611Z,65.28
2022-10-14T15:46:17.503Z,67.18
2022-10-14T15:48:54.984Z,67.03
2022-10-14T15:51:23.686Z,68.28
2022-10-14T15:53:51.920Z,71.40
2022-10-14T15:56:22.208Z,69.07
2022-10-14T15:58:49.649Z,70.72
2022-10-14T16:01:22.004Z,65.47
2022-10-14T16:03:52.242Z,96.35
2022-10-14T16:06:22.421Z,76.55
2022-10-14T16:08:49.603Z,75.13
2022-10-14T16:11:23.678Z,70.50
2022-10-14T16:13:50.769Z,69.40
2022-10-14T16:16:27.010Z,72.72
2022-10-14T16:18:54.244Z,67.20
2022-10-14T16:21:21.739Z,71.53
2022-10-14T16:23:48.916Z,72.15
2022-10-14T16:26:16.040Z,72.63
2022-10-14T16:28:43.104Z,71.43
2022-10-14T16:31:14.337Z,69.47
2022-10-14T16:33:44.777Z,78.57
2022-10-14T16:36:15.092Z,73.25
2022-10-14T16:38:42.322Z,73.50
2022-10-14T16:41:10.633Z,71.15
2022-10-14T16:43:37.713Z,70.75
2022-10-14T16:46:09.298Z,80.85
2022-10-14T16:48:38.991Z,75.50
2022-10-14T16:51:06.416Z,74.78
2022-10-14T16:53:44.806Z,74.82
2022-10-14T16:56:38.777Z,70.80
2022-10-14T16:59:07.678Z,71.53
2022-10-14T17:01:35.911Z,67.45
2022-10-14T17:04:04.050Z,72.00
2022-10-14T17:06:34.190Z,76.32
2022-10-14T17:09:01.309Z,76.22
2022-10-14T17:11:29.283Z,69.85
2022-10-14T17:13:59.770Z,73.22
2022-10-14T17:16:28.714Z,74.63
2022-10-14T17:18:56.963Z,75.13
2022-10-14T17:21:26.632Z,79.07
2022-10-14T17:23:54.217Z,74.50
2022-10-14T17:26:21.375Z,77.93
2022-10-14T17:28:48.870Z,71.13
2022-10-14T17:31:19.358Z,83.88
2022-10-14T17:33:46.755Z,76.47
2022-10-14T17:36:27.900Z,74.68
2022-10-14T17:38:57.168Z,68.07
2022-10-14T17:41:26.155Z,74.72
2022-10-14T17:43:54.356Z,73.63
2022-10-14T17:46:23.837Z,72.43
2022-10-14T17:48:57.085Z,77.05
2022-10-14T17:51:25.523Z,93.70
2022-10-14T17:53:58.416Z,82.80
2022-10-14T17:56:27.697Z,80.82
2022-10-14T17:58:57.011Z,76.97
2022-10-14T18:01:37.531Z,76.28
2022-10-14T18:04:11.250Z,72.63
2022-10-14T18:06:43.839Z,75.10
2022-10-14T18:09:12.030Z,76.53
2022-10-14T18:12:07.688Z,77.32
2022-10-14T18:14:30.233Z,78.18
2022-10-14T18:16:59.298Z,75.68
2022-10-14T18:19:27.181Z,75.72
2022-10-14T18:21:54.402Z,76.80
2022-10-14T18:24:21.490Z,77.32
2022-10-14T18:26:52.251Z,74.38
2022-10-14T18:29:19.448Z,74.40
2022-10-14T18:31:49.777Z,75.72
2022-10-14T18:34:17.087Z,74.15
2022-10-14T18:36:44.296Z,76.10
2022-10-14T18:39:13.123Z,79.95
2022-10-14T18:41:42.281Z,76.90
2022-10-14T18:44:09.608Z,76.13
2022-10-14T18:46:38.131Z,74.35
2022-10-14T18:49:07.473Z,85.82
2022-10-14T18:51:37.323Z,78.63
2022-10-14T18:54:07.887Z,80.47
2022-10-14T18:56:40.346Z,82.85
2022-10-14T18:59:13.949Z,87.50
2022-10-14T19:01:41.772Z,87.32
2022-10-14T19:04:14.095Z,81.15
2022-10-14T19:06:45.908Z,83.78
2022-10-14T19:09:13.666Z,90.13
2022-10-14T19:11:41.569Z,75.60
2022-10-14T19:14:09.913Z,80.65
2022-10-14T19:16:38.509Z,85.72
2022-10-14T19:19:15.124Z,89.18
2022-10-14T19:21:43.870Z,93.10
2022-10-14T19:24:13.015Z,102.57
2022-10-14T19:26:43.479Z,99.80
2022-10-14T19:29:13.672Z,106.80
2022-10-14T19:31:41.776Z,95.72
2022-10-14T19:34:11.898Z,92.05
2022-10-14T19:36:39.814Z,88.70
2022-10-14T19:39:09.255Z,85.55
2022-10-14T19:41:44.560Z,90.68
2022-10-14T19:44:14.172Z,81.63
2022-10-14T19:46:41.822Z,83.50
2022-10-14T19:49:12.731Z,88.47
2022-10-14T19:51:39.943Z,88.95
2022-10-14T19:54:07.438Z,84.90
2022-10-14T19:56:34.653Z,81.50
2022-10-14T19:59:01.884Z,84.15
2022-10-14T20:01:30.627Z,85.80
2022-10-14T20:04:00.668Z,80.85
2022-10-14T20:06:31.724Z,81.80
2022-10-14T20:09:02.513Z,83.15
2022-10-14T20:11:29.780Z,81.50
2022-10-14T20:13:57.379Z,83.35
2022-10-14T20:16:24.772Z,282.73
2022-10-14T20:18:52.412Z,101.40
2022-10-14T20:21:19.596Z,78.32
2022-10-14T20:23:46.654Z,85.07
2022-10-14T20:26:20.028Z,87.47
2022-10-14T20:28:48.206Z,84.32
2022-10-14T20:31:19.373Z,88.38
2022-10-14T20:33:47.927Z,89.85
2022-10-14T20:36:20.502Z,80.72
2022-10-14T20:38:48.883Z,82.47
2022-10-14T20:41:17.689Z,76.88
2022-10-14T20:43:45.605Z,76.95
2022-10-14T20:46:13.576Z,85.50
2022-10-14T20:48:40.747Z,84.53
2022-10-14T20:51:13.778Z,81.00
2022-10-14T20:56:13.608Z,83.10
2022-10-14T20:58:41.549Z,83.18
2022-10-14T21:01:17.712Z,81.45
2022-10-14T21:03:47.604Z,76.15
2022-10-14T21:06:20.152Z,78.05
2022-10-14T21:08:49.564Z,76.03
2022-10-14T21:11:18.594Z,86.75
2022-10-14T21:13:47.751Z,76.25
2022-10-14T21:16:21.957Z,82.00
2022-10-14T21:18:55.146Z,84.47
2022-10-14T21:23:52.950Z,77.65
2022-10-14T21:26:20.020Z,83.93
2022-10-14T21:28:47.229Z,79.82
2022-10-14T21:31:18.770Z,85.65
2022-10-14T21:33:47.905Z,77.55
2022-10-14T21:36:16.975Z,80.50
2022-10-14T21:38:44.225Z,83.32
2022-10-14T21:41:12.682Z,75.53
2022-10-14T21:43:40.254Z,83.50
2022-10-14T21:46:10.371Z,85.05
2022-10-14T21:48:37.751Z,85.15
2022-10-14T21:51:18.272Z,79.82
2022-10-14T21:53:46.724Z,83.88
2022-10-14T21:56:15.568Z,81.57
2022-10-14T21:58:43.480Z,79.60
2022-10-14T22:01:16.958Z,86.20
2022-10-14T22:03:44.734Z,82.82
2022-10-14T22:06:16.448Z,82.30
2022-10-14T22:08:48.864Z,83.72
2022-10-14T22:11:22.530Z,84.88
2022-10-14T22:13:50.321Z,82.35
2022-10-14T22:16:18.449Z,92.22
2022-10-14T22:18:47.968Z,85.75
2022-10-14T22:21:16.805Z,84.32
2022-10-14T22:23:44.722Z,88.30
2022-10-14T22:26:14.003Z,86.53
2022-10-14T22:28:42.015Z,86.28
2022-10-14T22:31:11.944Z,86.15
2022-10-14T22:33:39.761Z,90.03
2022-10-14T22:36:12.938Z,91.00
2022-10-14T22:38:44.893Z,89.93
2022-10-14T22:41:14.166Z,84.50
2022-10-14T22:43:50.751Z,83.47
2022-10-14T22:46:20.470Z,86.43
2022-10-14T22:48:50.887Z,90.30
2022-10-14T22:51:20.114Z,87.18
2022-10-14T22:53:47.432Z,87.00
2022-10-14T22:56:22.542Z,83.07
2022-10-14T22:59:10.831Z,80.25
2022-10-14T23:01:39.570Z,80.72
2022-10-14T23:04:07.061Z,78.88
2022-10-14T23:06:34.914Z,83.80
2022-10-14T23:09:03.051Z,81.80
2022-10-14T23:11:31.427Z,77.03
2022-10-14T23:14:01.453Z,79.38
2022-10-14T23:16:31.856Z,79.40
2022-10-14T23:18:59.606Z,80.28
2022-10-14T23:21:35.199Z,87.38
2022-10-14T23:24:08.333Z,72.97
2022-10-14T23:26:36.662Z,74.15
2022-10-14T23:29:09.877Z,76.88
2022-10-14T23:31:38.430Z,68.15
2022-10-14T23:34:09.959Z,82.72
2022-10-14T23:36:37.026Z,72.95
2022-10-14T23:39:04.895Z,79.50
2022-10-14T23:41:31.946Z,77.57
2022-10-14T23:43:59.043Z,73.32
2022-10-14T23:46:26.365Z,77.82
2022-10-14T23:49:06.592Z,75.45
2022-10-14T23:51:34.266Z,76.47
2022-10-14T23:54:01.551Z,78.40
2022-10-14T23:56:28.542Z,78.25
2022-10-14T23:58:55.547Z,77.70
